sensor_id;sensor_type;location;lat;lon;timestamp;P1;durP1;ratioP1;P2;durP2;ratioP2
5898;SDS011;2975;50.956;6.962;2023-04-15T00:00:50;6.97;;;2.70;;
5898;SDS011;2975;50.956;6.962;2023-04-15T00:03:16;8.63;;;2.50;;
5898;SDS011;2975;50.956;6.962;2023-04-15T00:05:42;4.23;;;2.27;;
5898;SDS011;2975;50.956;6.962;2023-04-15T00:08:08;4.67;;;2.17;;
5898;SDS011;2975;50.956;6.962;2023-04-15T00:10:34;6.77;;;2.67;;
5898;SDS011;2975;50.956;6.962;2023-04-15T00:12:59;3.87;;;2.33;;
5898;SDS011;2975;50.956;6.962;2023-04-15T00:15:26;8.43;;;2.60;;
5898;SDS011;2975;50.956;6.962;2023-04-15T00:17:52;4.90;;;2.70;;
5898;SDS011;2975;50.956;6.962;2023-04-15T00:20:18;6.80;;;2.83;;
5898;SDS011;2975;50.956;6.962;2023-04-15T00:22:43;6.07;;;2.63;;
5898;SDS011;2975;50.956;6.962;2023-04-15T00:25:09;8.63;;;2.60;;
5898;SDS011;2975;50.956;6.962;2023-04-15T00:27:34;6.47;;;2.80;;
5898;SDS011;2975;50.956;6.962;2023-04-15T00:30:00;6.23;;;2.73;;
5898;SDS011;2975;50.956;6.962;2023-04-15T00:32:26;11.47;;;2.47;;
5898;SDS011;2975;50.956;6.962;2023-04-15T00:34:51;7.13;;;3.07;;
5898;SDS011;2975;50.956;6.962;2023-04-15T00:37:17;6.10;;;2.63;;
5898;SDS011;2975;50.956;6.962;2023-04-15T00:39:43;5.07;;;2.60;;
5898;SDS011;2975;50.956;6.962;2023-04-15T00:42:09;5.90;;;2.90;;
5898;SDS011;2975;50.956;6.962;2023-04-15T00:44:35;7.93;;;2.93;;
5898;SDS011;2975;50.956;6.962;2023-04-15T00:47:00;6.20;;;3.53;;
5898;SDS011;2975;50.956;6.962;2023-04-15T00:49:27;4.27;;;2.83;;
5898;SDS011;2975;50.956;6.962;2023-04-15T00:51:53;9.63;;;3.27;;
5898;SDS011;2975;50.956;6.962;2023-04-15T00:54:19;6.07;;;3.00;;
5898;SDS011;2975;50.956;6.962;2023-04-15T00:56:45;7.77;;;2.87;;
5898;SDS011;2975;50.956;6.962;2023-04-15T00:59:11;4.93;;;3.03;;
5898;SDS011;2975;50.956;6.962;2023-04-15T01:01:37;4.50;;;2.60;;
5898;SDS011;2975;50.956;6.962;2023-04-15T01:04:03;8.20;;;3.23;;
5898;SDS011;2975;50.956;6.962;2023-04-15T01:06:29;8.53;;;3.07;;
5898;SDS011;2975;50.956;6.962;2023-04-15T01:08:56;7.33;;;2.90;;
5898;SDS011;2975;50.956;6.962;2023-04-15T01:11:22;5.77;;;2.77;;
5898;SDS011;2975;50.956;6.962;2023-04-15T01:13:49;6.47;;;2.60;;
5898;SDS011;2975;50.956;6.962;2023-04-15T01:16:16;5.93;;;3.47;;
5898;SDS011;2975;50.956;6.962;2023-04-15T01:18:42;6.43;;;2.90;;
5898;SDS011;2975;50.956;6.962;2023-04-15T01:21:08;5.23;;;2.90;;
5898;SDS011;2975;50.956;6.962;2023-04-15T01:23:35;8.03;;;3.20;;
5898;SDS011;2975;50.956;6.962;2023-04-15T01:26:03;6.97;;;2.73;;
5898;SDS011;2975;50.956;6.962;2023-04-15T01:28:29;6.47;;;2.57;;
5898;SDS011;2975;50.956;6.962;2023-04-15T01:31:08;5.97;;;3.03;;
5898;SDS011;2975;50.956;6.962;2023-04-15T01:33:36;7.47;;;2.87;;
5898;SDS011;2975;50.956;6.962;2023-04-15T01:36:02;5.63;;;2.70;;
5898;SDS011;2975;50.956;6.962;2023-04-15T01:38:29;4.83;;;2.90;;
5898;SDS011;2975;50.956;6.962;2023-04-15T01:40:56;6.27;;;2.90;;
5898;SDS011;2975;50.956;6.962;2023-04-15T01:43:22;5.17;;;3.03;;
5898;SDS011;2975;50.956;6.962;2023-04-15T01:45:47;5.90;;;2.70;;
5898;SDS011;2975;50.956;6.962;2023-04-15T01:48:13;6.17;;;2.53;;
5898;SDS011;2975;50.956;6.962;2023-04-15T01:50:39;5.90;;;3.27;;
5898;SDS011;2975;50.956;6.962;2023-04-15T01:53:04;6.93;;;3.03;;
5898;SDS011;2975;50.956;6.962;2023-04-15T01:55:30;12.67;;;3.53;;
5898;SDS011;2975;50.956;6.962;2023-04-15T01:57:56;5.90;;;3.13;;
5898;SDS011;2975;50.956;6.962;2023-04-15T02:00:22;6.57;;;3.00;;
5898;SDS011;2975;50.956;6.962;2023-04-15T02:02:48;4.83;;;2.90;;
5898;SDS011;2975;50.956;6.962;2023-04-15T02:05:14;6.77;;;3.60;;
5898;SDS011;2975;50.956;6.962;2023-04-15T02:07:41;7.73;;;3.13;;
5898;SDS011;2975;50.956;6.962;2023-04-15T02:10:07;8.13;;;2.63;;
5898;SDS011;2975;50.956;6.962;2023-04-15T02:12:34;6.50;;;2.80;;
5898;SDS011;2975;50.956;6.962;2023-04-15T02:15:00;8.03;;;3.77;;
5898;SDS011;2975;50.956;6.962;2023-04-15T02:17:26;4.27;;;2.60;;
5898;SDS011;2975;50.956;6.962;2023-04-15T02:19:51;8.70;;;3.47;;
5898;SDS011;2975;50.956;6.962;2023-04-15T02:22:17;6.20;;;2.97;;
5898;SDS011;2975;50.956;6.962;2023-04-15T02:24:43;7.23;;;3.07;;
5898;SDS011;2975;50.956;6.962;2023-04-15T02:27:10;6.23;;;2.80;;
5898;SDS011;2975;50.956;6.962;2023-04-15T02:29:39;6.90;;;2.80;;
5898;SDS011;2975;50.956;6.962;2023-04-15T02:32:05;6.53;;;2.80;;
5898;SDS011;2975;50.956;6.962;2023-04-15T02:34:31;6.33;;;2.73;;
5898;SDS011;2975;50.956;6.962;2023-04-15T02:36:57;6.47;;;3.23;;
5898;SDS011;2975;50.956;6.962;2023-04-15T02:39:23;6.53;;;3.10;;
5898;SDS011;2975;50.956;6.962;2023-04-15T02:41:49;9.80;;;2.87;;
5898;SDS011;2975;50.956;6.962;2023-04-15T02:44:17;6.67;;;2.70;;
5898;SDS011;2975;50.956;6.962;2023-04-15T02:46:47;7.50;;;2.77;;
5898;SDS011;2975;50.956;6.962;2023-04-15T02:49:16;5.37;;;3.03;;
5898;SDS011;2975;50.956;6.962;2023-04-15T02:51:42;4.70;;;3.23;;
5898;SDS011;2975;50.956;6.962;2023-04-15T02:54:09;3.37;;;2.47;;
5898;SDS011;2975;50.956;6.962;2023-04-15T02:56:34;5.23;;;2.67;;
5898;SDS011;2975;50.956;6.962;2023-04-15T02:59:00;6.20;;;3.20;;
5898;SDS011;2975;50.956;6.962;2023-04-15T03:01:25;6.63;;;2.97;;
5898;SDS011;2975;50.956;6.962;2023-04-15T03:03:51;5.37;;;2.67;;
5898;SDS011;2975;50.956;6.962;2023-04-15T03:06:18;7.03;;;3.07;;
5898;SDS011;2975;50.956;6.962;2023-04-15T03:08:44;6.60;;;3.10;;
5898;SDS011;2975;50.956;6.962;2023-04-15T03:11:10;8.20;;;3.07;;
5898;SDS011;2975;50.956;6.962;2023-04-15T03:13:36;4.83;;;2.93;;
5898;SDS011;2975;50.956;6.962;2023-04-15T03:16:03;3.93;;;3.00;;
5898;SDS011;2975;50.956;6.962;2023-04-15T03:18:29;7.67;;;2.77;;
5898;SDS011;2975;50.956;6.962;2023-04-15T03:20:55;8.70;;;3.00;;
5898;SDS011;2975;50.956;6.962;2023-04-15T03:23:20;8.73;;;3.20;;
5898;SDS011;2975;50.956;6.962;2023-04-15T03:25:46;4.27;;;2.60;;
5898;SDS011;2975;50.956;6.962;2023-04-15T03:28:12;6.97;;;2.70;;
5898;SDS011;2975;50.956;6.962;2023-04-15T03:30:37;7.27;;;3.17;;
5898;SDS011;2975;50.956;6.962;2023-04-15T03:33:03;4.87;;;2.93;;
5898;SDS011;2975;50.956;6.962;2023-04-15T03:35:28;3.27;;;2.93;;
5898;SDS011;2975;50.956;6.962;2023-04-15T03:37:54;6.23;;;3.13;;
5898;SDS011;2975;50.956;6.962;2023-04-15T03:40:20;5.73;;;2.80;;
5898;SDS011;2975;50.956;6.962;2023-04-15T03:42:46;5.03;;;3.10;;
5898;SDS011;2975;50.956;6.962;2023-04-15T03:45:11;3.93;;;2.93;;
5898;SDS011;2975;50.956;6.962;2023-04-15T03:47:37;5.60;;;3.30;;
5898;SDS011;2975;50.956;6.962;2023-04-15T03:50:03;6.57;;;2.90;;
5898;SDS011;2975;50.956;6.962;2023-04-15T03:52:29;6.40;;;2.93;;
5898;SDS011;2975;50.956;6.962;2023-04-15T03:54:55;4.13;;;3.20;;
5898;SDS011;2975;50.956;6.962;2023-04-15T03:57:21;6.57;;;2.80;;
5898;SDS011;2975;50.956;6.962;2023-04-15T03:59:46;5.80;;;2.80;;
5898;SDS011;2975;50.956;6.962;2023-04-15T04:02:12;8.07;;;3.57;;
5898;SDS011;2975;50.956;6.962;2023-04-15T04:04:37;6.40;;;3.03;;
5898;SDS011;2975;50.956;6.962;2023-04-15T04:07:03;6.67;;;2.87;;
5898;SDS011;2975;50.956;6.962;2023-04-15T04:09:28;4.37;;;3.30;;
5898;SDS011;2975;50.956;6.962;2023-04-15T04:11:54;7.67;;;4.17;;
5898;SDS011;2975;50.956;6.962;2023-04-15T04:14:20;6.00;;;3.23;;
5898;SDS011;2975;50.956;6.962;2023-04-15T04:16:50;6.97;;;3.17;;
5898;SDS011;2975;50.956;6.962;2023-04-15T04:19:16;6.60;;;3.00;;
5898;SDS011;2975;50.956;6.962;2023-04-15T04:21:43;8.00;;;3.10;;
5898;SDS011;2975;50.956;6.962;2023-04-15T04:24:09;5.73;;;3.00;;
5898;SDS011;2975;50.956;6.962;2023-04-15T04:26:35;6.77;;;3.53;;
5898;SDS011;2975;50.956;6.962;2023-04-15T04:29:00;6.70;;;3.80;;
5898;SDS011;2975;50.956;6.962;2023-04-15T04:31:26;5.20;;;2.80;;
5898;SDS011;2975;50.956;6.962;2023-04-15T04:33:51;6.23;;;2.97;;
5898;SDS011;2975;50.956;6.962;2023-04-15T04:36:17;6.57;;;3.10;;
5898;SDS011;2975;50.956;6.962;2023-04-15T04:38:43;8.93;;;3.30;;
5898;SDS011;2975;50.956;6.962;2023-04-15T04:41:08;7.30;;;3.23;;
5898;SDS011;2975;50.956;6.962;2023-04-15T04:43:34;7.73;;;2.93;;
5898;SDS011;2975;50.956;6.962;2023-04-15T04:45:59;4.50;;;3.07;;
5898;SDS011;2975;50.956;6.962;2023-04-15T04:48:25;8.03;;;3.40;;
5898;SDS011;2975;50.956;6.962;2023-04-15T04:50:51;5.77;;;3.30;;
5898;SDS011;2975;50.956;6.962;2023-04-15T04:53:17;5.37;;;2.97;;
5898;SDS011;2975;50.956;6.962;2023-04-15T04:55:42;6.77;;;3.23;;
5898;SDS011;2975;50.956;6.962;2023-04-15T04:58:08;9.13;;;3.57;;
5898;SDS011;2975;50.956;6.962;2023-04-15T05:00:34;6.90;;;3.10;;
5898;SDS011;2975;50.956;6.962;2023-04-15T05:02:59;7.67;;;3.97;;
5898;SDS011;2975;50.956;6.962;2023-04-15T05:05:25;7.60;;;3.13;;
5898;SDS011;2975;50.956;6.962;2023-04-15T05:07:51;5.83;;;3.07;;
5898;SDS011;2975;50.956;6.962;2023-04-15T05:10:16;7.30;;;3.60;;
5898;SDS011;2975;50.956;6.962;2023-04-15T05:12:42;11.23;;;3.80;;
5898;SDS011;2975;50.956;6.962;2023-04-15T05:15:08;7.47;;;4.17;;
5898;SDS011;2975;50.956;6.962;2023-04-15T05:17:34;8.07;;;4.20;;
5898;SDS011;2975;50.956;6.962;2023-04-15T05:20:00;6.50;;;3.80;;
5898;SDS011;2975;50.956;6.962;2023-04-15T05:22:26;6.67;;;3.70;;
5898;SDS011;2975;50.956;6.962;2023-04-15T05:24:52;5.03;;;3.13;;
5898;SDS011;2975;50.956;6.962;2023-04-15T05:27:17;7.47;;;3.07;;
5898;SDS011;2975;50.956;6.962;2023-04-15T05:29:43;7.47;;;3.77;;
5898;SDS011;2975;50.956;6.962;2023-04-15T05:32:09;8.53;;;3.77;;
5898;SDS011;2975;50.956;6.962;2023-04-15T05:34:34;8.73;;;4.63;;
5898;SDS011;2975;50.956;6.962;2023-04-15T05:37:00;7.60;;;3.33;;
5898;SDS011;2975;50.956;6.962;2023-04-15T05:39:26;6.70;;;3.10;;
5898;SDS011;2975;50.956;6.962;2023-04-15T05:41:51;5.93;;;2.90;;
5898;SDS011;2975;50.956;6.962;2023-04-15T05:44:17;6.57;;;4.07;;
5898;SDS011;2975;50.956;6.962;2023-04-15T05:46:43;8.20;;;3.20;;
5898;SDS011;2975;50.956;6.962;2023-04-15T05:49:08;9.77;;;3.10;;
5898;SDS011;2975;50.956;6.962;2023-04-15T05:51:34;6.13;;;3.13;;
5898;SDS011;2975;50.956;6.962;2023-04-15T05:54:00;6.70;;;3.33;;
5898;SDS011;2975;50.956;6.962;2023-04-15T05:56:26;5.90;;;2.87;;
5898;SDS011;2975;50.956;6.962;2023-04-15T05:58:51;7.43;;;2.93;;
5898;SDS011;2975;50.956;6.962;2023-04-15T06:01:17;5.87;;;3.10;;
5898;SDS011;2975;50.956;6.962;2023-04-15T06:03:43;5.80;;;2.90;;
5898;SDS011;2975;50.956;6.962;2023-04-15T06:06:08;7.70;;;3.37;;
5898;SDS011;2975;50.956;6.962;2023-04-15T06:08:34;6.83;;;3.20;;
5898;SDS011;2975;50.956;6.962;2023-04-15T06:11:00;6.13;;;3.50;;
5898;SDS011;2975;50.956;6.962;2023-04-15T06:13:26;4.87;;;3.40;;
5898;SDS011;2975;50.956;6.962;2023-04-15T06:15:51;5.63;;;3.70;;
5898;SDS011;2975;50.956;6.962;2023-04-15T06:18:17;8.17;;;3.77;;
5898;SDS011;2975;50.956;6.962;2023-04-15T06:20:44;6.03;;;3.50;;
5898;SDS011;2975;50.956;6.962;2023-04-15T06:23:10;7.97;;;4.13;;
5898;SDS011;2975;50.956;6.962;2023-04-15T06:25:36;7.23;;;3.93;;
5898;SDS011;2975;50.956;6.962;2023-04-15T06:28:01;6.43;;;3.93;;
5898;SDS011;2975;50.956;6.962;2023-04-15T06:30:27;7.73;;;3.97;;
5898;SDS011;2975;50.956;6.962;2023-04-15T06:32:53;5.73;;;3.87;;
5898;SDS011;2975;50.956;6.962;2023-04-15T06:35:19;8.13;;;3.93;;
5898;SDS011;2975;50.956;6.962;2023-04-15T06:37:46;9.07;;;4.17;;
5898;SDS011;2975;50.956;6.962;2023-04-15T06:40:11;6.27;;;3.93;;
5898;SDS011;2975;50.956;6.962;2023-04-15T06:42:37;10.20;;;3.40;;
5898;SDS011;2975;50.956;6.962;2023-04-15T06:45:03;6.50;;;3.40;;
5898;SDS011;2975;50.956;6.962;2023-04-15T06:47:29;5.67;;;3.70;;
5898;SDS011;2975;50.956;6.962;2023-04-15T06:49:55;7.23;;;3.83;;
5898;SDS011;2975;50.956;6.962;2023-04-15T06:52:20;4.80;;;3.33;;
5898;SDS011;2975;50.956;6.962;2023-04-15T06:54:46;6.70;;;3.80;;
5898;SDS011;2975;50.956;6.962;2023-04-15T06:57:11;7.67;;;4.17;;
5898;SDS011;2975;50.956;6.962;2023-04-15T06:59:37;8.50;;;4.10;;
5898;SDS011;2975;50.956;6.962;2023-04-15T07:02:03;6.67;;;4.40;;
5898;SDS011;2975;50.956;6.962;2023-04-15T07:04:28;5.97;;;3.50;;
5898;SDS011;2975;50.956;6.962;2023-04-15T07:06:54;7.47;;;4.30;;
5898;SDS011;2975;50.956;6.962;2023-04-15T07:09:21;11.20;;;4.93;;
5898;SDS011;2975;50.956;6.962;2023-04-15T07:11:47;9.87;;;4.80;;
5898;SDS011;2975;50.956;6.962;2023-04-15T07:14:13;5.90;;;4.40;;
5898;SDS011;2975;50.956;6.962;2023-04-15T07:16:39;11.73;;;4.47;;
5898;SDS011;2975;50.956;6.962;2023-04-15T07:19:04;7.97;;;5.00;;
5898;SDS011;2975;50.956;6.962;2023-04-15T07:21:30;6.57;;;4.67;;
5898;SDS011;2975;50.956;6.962;2023-04-15T07:23:56;7.63;;;5.33;;
5898;SDS011;2975;50.956;6.962;2023-04-15T07:26:22;9.37;;;5.17;;
5898;SDS011;2975;50.956;6.962;2023-04-15T07:28:48;10.40;;;5.43;;
5898;SDS011;2975;50.956;6.962;2023-04-15T07:31:14;7.57;;;4.97;;
5898;SDS011;2975;50.956;6.962;2023-04-15T07:33:40;5.57;;;4.63;;
5898;SDS011;2975;50.956;6.962;2023-04-15T07:36:06;7.13;;;4.37;;
5898;SDS011;2975;50.956;6.962;2023-04-15T07:38:32;5.57;;;4.27;;
5898;SDS011;2975;50.956;6.962;2023-04-15T07:40:57;5.53;;;4.50;;
5898;SDS011;2975;50.956;6.962;2023-04-15T07:43:23;6.83;;;4.43;;
5898;SDS011;2975;50.956;6.962;2023-04-15T07:45:49;5.60;;;4.03;;
5898;SDS011;2975;50.956;6.962;2023-04-15T07:48:14;5.53;;;4.23;;
5898;SDS011;2975;50.956;6.962;2023-04-15T07:50:40;5.37;;;4.67;;
5898;SDS011;2975;50.956;6.962;2023-04-15T07:53:06;8.30;;;4.30;;
5898;SDS011;2975;50.956;6.962;2023-04-15T07:55:32;5.50;;;4.37;;
5898;SDS011;2975;50.956;6.962;2023-04-15T07:57:58;11.40;;;5.03;;
5898;SDS011;2975;50.956;6.962;2023-04-15T08:00:23;7.33;;;4.67;;
5898;SDS011;2975;50.956;6.962;2023-04-15T08:02:49;10.10;;;4.67;;
5898;SDS011;2975;50.956;6.962;2023-04-15T08:05:17;6.80;;;3.93;;
5898;SDS011;2975;50.956;6.962;2023-04-15T08:07:42;4.50;;;3.40;;
5898;SDS011;2975;50.956;6.962;2023-04-15T08:10:08;5.00;;;3.10;;
5898;SDS011;2975;50.956;6.962;2023-04-15T08:12:34;3.80;;;2.53;;
5898;SDS011;2975;50.956;6.962;2023-04-15T08:15:00;4.47;;;2.40;;
5898;SDS011;2975;50.956;6.962;2023-04-15T08:17:26;2.90;;;1.80;;
5898;SDS011;2975;50.956;6.962;2023-04-15T08:19:52;3.53;;;1.70;;
5898;SDS011;2975;50.956;6.962;2023-04-15T08:22:18;4.33;;;1.70;;
5898;SDS011;2975;50.956;6.962;2023-04-15T08:24:43;1.80;;;1.70;;
5898;SDS011;2975;50.956;6.962;2023-04-15T08:27:09;3.67;;;1.53;;
5898;SDS011;2975;50.956;6.962;2023-04-15T08:29:35;2.70;;;1.47;;
5898;SDS011;2975;50.956;6.962;2023-04-15T08:32:00;1.90;;;1.30;;
5898;SDS011;2975;50.956;6.962;2023-04-15T08:34:27;1.30;;;1.20;;
5898;SDS011;2975;50.956;6.962;2023-04-15T08:36:53;3.97;;;1.47;;
5898;SDS011;2975;50.956;6.962;2023-04-15T08:39:18;1.87;;;1.20;;
5898;SDS011;2975;50.956;6.962;2023-04-15T08:41:45;2.13;;;1.33;;
5898;SDS011;2975;50.956;6.962;2023-04-15T08:44:23;3.47;;;1.53;;
5898;SDS011;2975;50.956;6.962;2023-04-15T08:46:50;3.03;;;1.53;;
5898;SDS011;2975;50.956;6.962;2023-04-15T08:49:17;1.40;;;1.30;;
5898;SDS011;2975;50.956;6.962;2023-04-15T08:51:45;1.43;;;1.33;;
5898;SDS011;2975;50.956;6.962;2023-04-15T08:54:11;1.33;;;1.23;;
5898;SDS011;2975;50.956;6.962;2023-04-15T08:56:37;3.20;;;1.43;;
5898;SDS011;2975;50.956;6.962;2023-04-15T08:59:03;2.13;;;1.10;;
5898;SDS011;2975;50.956;6.962;2023-04-15T09:01:30;1.73;;;1.33;;
5898;SDS011;2975;50.956;6.962;2023-04-15T09:03:56;3.10;;;2.00;;
5898;SDS011;2975;50.956;6.962;2023-04-15T09:06:23;1.40;;;1.30;;
5898;SDS011;2975;50.956;6.962;2023-04-15T09:08:50;2.53;;;1.40;;
5898;SDS011;2975;50.956;6.962;2023-04-15T09:11:16;1.57;;;1.47;;
5898;SDS011;2975;50.956;6.962;2023-04-15T09:13:42;1.07;;;1.07;;
5898;SDS011;2975;50.956;6.962;2023-04-15T09:16:08;1.77;;;1.60;;
5898;SDS011;2975;50.956;6.962;2023-04-15T09:18:34;1.67;;;1.53;;
5898;SDS011;2975;50.956;6.962;2023-04-15T09:21:20;1.77;;;1.20;;
5898;SDS011;2975;50.956;6.962;2023-04-15T09:24:00;1.43;;;1.30;;
5898;SDS011;2975;50.956;6.962;2023-04-15T09:26:33;1.90;;;1.60;;
5898;SDS011;2975;50.956;6.962;2023-04-15T09:29:07;3.17;;;1.60;;
5898;SDS011;2975;50.956;6.962;2023-04-15T09:31:34;2.30;;;1.60;;
5898;SDS011;2975;50.956;6.962;2023-04-15T09:34:00;4.10;;;1.83;;
5898;SDS011;2975;50.956;6.962;2023-04-15T09:36:26;2.20;;;1.90;;
5898;SDS011;2975;50.956;6.962;2023-04-15T09:38:56;3.33;;;1.70;;
5898;SDS011;2975;50.956;6.962;2023-04-15T09:41:23;2.30;;;1.70;;
5898;SDS011;2975;50.956;6.962;2023-04-15T09:43:49;2.60;;;1.90;;
5898;SDS011;2975;50.956;6.962;2023-04-15T09:46:15;3.97;;;2.20;;
5898;SDS011;2975;50.956;6.962;2023-04-15T09:48:41;4.93;;;2.17;;
5898;SDS011;2975;50.956;6.962;2023-04-15T09:51:06;2.17;;;1.97;;
5898;SDS011;2975;50.956;6.962;2023-04-15T09:53:33;3.30;;;1.60;;
5898;SDS011;2975;50.956;6.962;2023-04-15T09:56:00;1.43;;;1.33;;
5898;SDS011;2975;50.956;6.962;2023-04-15T09:58:27;2.87;;;1.67;;
5898;SDS011;2975;50.956;6.962;2023-04-15T10:00:55;1.93;;;1.73;;
5898;SDS011;2975;50.956;6.962;2023-04-15T10:03:23;2.17;;;1.97;;
5898;SDS011;2975;50.956;6.962;2023-04-15T10:05:54;2.80;;;2.23;;
5898;SDS011;2975;50.956;6.962;2023-04-15T10:08:21;2.20;;;1.87;;
5898;SDS011;2975;50.956;6.962;2023-04-15T10:10:49;2.30;;;2.10;;
5898;SDS011;2975;50.956;6.962;2023-04-15T10:13:22;2.50;;;2.23;;
5898;SDS011;2975;50.956;6.962;2023-04-15T10:18:33;3.70;;;3.03;;
5898;SDS011;2975;50.956;6.962;2023-04-15T10:21:00;2.77;;;2.33;;
5898;SDS011;2975;50.956;6.962;2023-04-15T10:23:26;6.20;;;2.50;;
5898;SDS011;2975;50.956;6.962;2023-04-15T10:25:53;3.50;;;3.00;;
5898;SDS011;2975;50.956;6.962;2023-04-15T10:28:20;3.40;;;2.50;;
5898;SDS011;2975;50.956;6.962;2023-04-15T10:30:47;4.67;;;2.60;;
5898;SDS011;2975;50.956;6.962;2023-04-15T10:33:14;3.13;;;2.80;;
5898;SDS011;2975;50.956;6.962;2023-04-15T10:35:44;2.90;;;2.60;;
5898;SDS011;2975;50.956;6.962;2023-04-15T10:41:11;4.97;;;2.80;;
5898;SDS011;2975;50.956;6.962;2023-04-15T10:43:38;3.87;;;2.37;;
5898;SDS011;2975;50.956;6.962;2023-04-15T10:46:05;3.23;;;2.57;;
5898;SDS011;2975;50.956;6.962;2023-04-15T10:48:31;6.00;;;2.87;;
5898;SDS011;2975;50.956;6.962;2023-04-15T10:50:59;2.37;;;2.13;;
5898;SDS011;2975;50.956;6.962;2023-04-15T10:53:29;2.43;;;2.13;;
5898;SDS011;2975;50.956;6.962;2023-04-15T10:55:58;2.53;;;2.33;;
5898;SDS011;2975;50.956;6.962;2023-04-15T10:58:24;2.53;;;2.03;;
5898;SDS011;2975;50.956;6.962;2023-04-15T11:00:52;2.27;;;1.90;;
5898;SDS011;2975;50.956;6.962;2023-04-15T11:06:16;3.33;;;2.40;;
5898;SDS011;2975;50.956;6.962;2023-04-15T11:09:02;2.73;;;1.60;;
5898;SDS011;2975;50.956;6.962;2023-04-15T11:14:39;2.87;;;2.00;;
5898;SDS011;2975;50.956;6.962;2023-04-15T11:17:08;2.70;;;1.90;;
5898;SDS011;2975;50.956;6.962;2023-04-15T11:19:37;5.63;;;2.10;;
5898;SDS011;2975;50.956;6.962;2023-04-15T11:22:09;2.07;;;1.77;;
5898;SDS011;2975;50.956;6.962;2023-04-15T11:24:36;1.60;;;1.50;;
5898;SDS011;2975;50.956;6.962;2023-04-15T11:27:21;2.80;;;1.90;;
5898;SDS011;2975;50.956;6.962;2023-04-15T11:29:48;2.13;;;1.93;;
5898;SDS011;2975;50.956;6.962;2023-04-15T11:32:14;2.10;;;1.97;;
5898;SDS011;2975;50.956;6.962;2023-04-15T11:34:40;2.27;;;2.07;;
5898;SDS011;2975;50.956;6.962;2023-04-15T11:37:06;2.47;;;2.20;;
5898;SDS011;2975;50.956;6.962;2023-04-15T11:39:32;1.53;;;1.43;;
5898;SDS011;2975;50.956;6.962;2023-04-15T11:41:58;1.90;;;1.63;;
5898;SDS011;2975;50.956;6.962;2023-04-15T11:44:23;2.50;;;2.00;;
5898;SDS011;2975;50.956;6.962;2023-04-15T11:46:49;2.53;;;2.33;;
5898;SDS011;2975;50.956;6.962;2023-04-15T11:49:25;3.10;;;1.83;;
5898;SDS011;2975;50.956;6.962;2023-04-15T11:51:52;3.90;;;2.00;;
5898;SDS011;2975;50.956;6.962;2023-04-15T11:54:18;2.00;;;1.80;;
5898;SDS011;2975;50.956;6.962;2023-04-15T11:56:48;2.33;;;2.13;;
5898;SDS011;2975;50.956;6.962;2023-04-15T11:59:16;2.47;;;2.27;;
5898;SDS011;2975;50.956;6.962;2023-04-15T12:01:41;2.53;;;2.33;;
5898;SDS011;2975;50.956;6.962;2023-04-15T12:04:14;3.37;;;2.30;;
5898;SDS011;2975;50.956;6.962;2023-04-15T12:06:43;2.77;;;2.57;;
5898;SDS011;2975;50.956;6.962;2023-04-15T12:09:12;3.30;;;3.10;;
5898;SDS011;2975;50.956;6.962;2023-04-15T12:11:42;2.80;;;2.60;;
5898;SDS011;2975;50.956;6.962;2023-04-15T12:16:51;3.00;;;2.80;;
5898;SDS011;2975;50.956;6.962;2023-04-15T12:19:23;3.40;;;3.10;;
5898;SDS011;2975;50.956;6.962;2023-04-15T12:22:00;3.07;;;2.87;;
5898;SDS011;2975;50.956;6.962;2023-04-15T12:24:30;3.43;;;3.03;;
5898;SDS011;2975;50.956;6.962;2023-04-15T12:26:58;3.33;;;3.07;;
5898;SDS011;2975;50.956;6.962;2023-04-15T12:29:46;3.80;;;3.47;;
5898;SDS011;2975;50.956;6.962;2023-04-15T12:32:12;3.60;;;3.30;;
5898;SDS011;2975;50.956;6.962;2023-04-15T12:34:41;3.63;;;3.33;;
5898;SDS011;2975;50.956;6.962;2023-04-15T12:37:15;3.60;;;3.30;;
5898;SDS011;2975;50.956;6.962;2023-04-15T12:39:41;4.07;;;3.43;;
5898;SDS011;2975;50.956;6.962;2023-04-15T12:42:08;4.47;;;3.63;;
5898;SDS011;2975;50.956;6.962;2023-04-15T12:44:35;4.23;;;3.83;;
5898;SDS011;2975;50.956;6.962;2023-04-15T12:47:02;4.37;;;4.00;;
5898;SDS011;2975;50.956;6.962;2023-04-15T12:49:29;4.23;;;3.83;;
5898;SDS011;2975;50.956;6.962;2023-04-15T12:51:57;4.67;;;4.27;;
5898;SDS011;2975;50.956;6.962;2023-04-15T12:54:24;4.67;;;4.27;;
5898;SDS011;2975;50.956;6.962;2023-04-15T12:56:51;4.50;;;4.10;;
5898;SDS011;2975;50.956;6.962;2023-04-15T12:59:18;5.10;;;4.65;;
5898;SDS011;2975;50.956;6.962;2023-04-15T13:01:45;5.13;;;4.10;;
5898;SDS011;2975;50.956;6.962;2023-04-15T13:04:11;4.53;;;3.83;;
5898;SDS011;2975;50.956;6.962;2023-04-15T13:06:37;4.20;;;3.90;;
5898;SDS011;2975;50.956;6.962;2023-04-15T13:09:03;4.17;;;3.63;;
5898;SDS011;2975;50.956;6.962;2023-04-15T13:11:30;7.17;;;3.60;;
5898;SDS011;2975;50.956;6.962;2023-04-15T13:13:57;3.70;;;3.40;;
5898;SDS011;2975;50.956;6.962;2023-04-15T13:16:24;3.87;;;3.10;;
5898;SDS011;2975;50.956;6.962;2023-04-15T13:18:50;3.30;;;3.00;;
5898;SDS011;2975;50.956;6.962;2023-04-15T13:21:15;3.57;;;3.27;;
5898;SDS011;2975;50.956;6.962;2023-04-15T13:23:43;3.83;;;3.43;;
5898;SDS011;2975;50.956;6.962;2023-04-15T13:26:09;3.53;;;3.00;;
5898;SDS011;2975;50.956;6.962;2023-04-15T13:28:35;4.70;;;3.53;;
5898;SDS011;2975;50.956;6.962;2023-04-15T13:31:01;4.23;;;3.70;;
5898;SDS011;2975;50.956;6.962;2023-04-15T13:33:27;3.97;;;3.40;;
5898;SDS011;2975;50.956;6.962;2023-04-15T13:35:52;4.40;;;3.60;;
5898;SDS011;2975;50.956;6.962;2023-04-15T13:38:18;3.97;;;3.40;;
5898;SDS011;2975;50.956;6.962;2023-04-15T13:40:44;4.68;;;4.10;;
5898;SDS011;2975;50.956;6.962;2023-04-15T13:43:09;4.75;;;3.88;;
5898;SDS011;2975;50.956;6.962;2023-04-15T13:45:35;4.13;;;3.70;;
5898;SDS011;2975;50.956;6.962;2023-04-15T13:48:01;4.07;;;3.13;;
5898;SDS011;2975;50.956;6.962;2023-04-15T13:50:27;3.97;;;3.57;;
5898;SDS011;2975;50.956;6.962;2023-04-15T13:52:53;4.83;;;3.03;;
5898;SDS011;2975;50.956;6.962;2023-04-15T13:55:18;4.30;;;3.90;;
5898;SDS011;2975;50.956;6.962;2023-04-15T13:57:44;3.17;;;2.80;;
5898;SDS011;2975;50.956;6.962;2023-04-15T14:00:10;4.60;;;2.90;;
5898;SDS011;2975;50.956;6.962;2023-04-15T14:02:36;3.07;;;2.40;;
5898;SDS011;2975;50.956;6.962;2023-04-15T14:05:01;3.00;;;2.30;;
5898;SDS011;2975;50.956;6.962;2023-04-15T14:07:30;2.30;;;2.10;;
5898;SDS011;2975;50.956;6.962;2023-04-15T14:09:56;2.37;;;2.13;;
5898;SDS011;2975;50.956;6.962;2023-04-15T14:12:21;3.23;;;2.17;;
5898;SDS011;2975;50.956;6.962;2023-04-15T14:14:47;2.50;;;1.87;;
5898;SDS011;2975;50.956;6.962;2023-04-15T14:17:13;4.07;;;2.30;;
5898;SDS011;2975;50.956;6.962;2023-04-15T14:19:38;3.47;;;2.10;;
5898;SDS011;2975;50.956;6.962;2023-04-15T14:22:04;2.37;;;1.73;;
5898;SDS011;2975;50.956;6.962;2023-04-15T14:24:30;2.37;;;2.10;;
5898;SDS011;2975;50.956;6.962;2023-04-15T14:26:55;4.23;;;2.10;;
5898;SDS011;2975;50.956;6.962;2023-04-15T14:29:22;3.23;;;2.30;;
5898;SDS011;2975;50.956;6.962;2023-04-15T14:31:47;2.70;;;2.10;;
5898;SDS011;2975;50.956;6.962;2023-04-15T14:34:14;4.43;;;2.20;;
5898;SDS011;2975;50.956;6.962;2023-04-15T14:36:41;2.93;;;2.63;;
5898;SDS011;2975;50.956;6.962;2023-04-15T14:39:07;2.90;;;2.50;;
5898;SDS011;2975;50.956;6.962;2023-04-15T14:41:33;2.75;;;2.50;;
5898;SDS011;2975;50.956;6.962;2023-04-15T14:43:59;3.38;;;2.88;;
5898;SDS011;2975;50.956;6.962;2023-04-15T14:46:25;2.40;;;2.20;;
5898;SDS011;2975;50.956;6.962;2023-04-15T14:48:50;3.97;;;3.57;;
5898;SDS011;2975;50.956;6.962;2023-04-15T14:51:16;4.30;;;3.60;;
5898;SDS011;2975;50.956;6.962;2023-04-15T14:53:42;5.10;;;3.70;;
5898;SDS011;2975;50.956;6.962;2023-04-15T14:56:08;6.63;;;4.10;;
5898;SDS011;2975;50.956;6.962;2023-04-15T14:58:34;4.63;;;4.17;;
5898;SDS011;2975;50.956;6.962;2023-04-15T15:01:00;5.63;;;4.13;;
5898;SDS011;2975;50.956;6.962;2023-04-15T15:03:27;4.63;;;3.90;;
5898;SDS011;2975;50.956;6.962;2023-04-15T15:05:53;6.47;;;4.20;;
5898;SDS011;2975;50.956;6.962;2023-04-15T15:08:19;5.67;;;4.30;;
5898;SDS011;2975;50.956;6.962;2023-04-15T15:10:44;6.87;;;4.53;;
5898;SDS011;2975;50.956;6.962;2023-04-15T15:13:10;5.53;;;4.43;;
5898;SDS011;2975;50.956;6.962;2023-04-15T15:15:36;7.10;;;5.43;;
5898;SDS011;2975;50.956;6.962;2023-04-15T15:18:02;9.03;;;7.37;;
5898;SDS011;2975;50.956;6.962;2023-04-15T15:20:28;10.60;;;8.70;;
5898;SDS011;2975;50.956;6.962;2023-04-15T15:22:54;8.90;;;7.83;;
5898;SDS011;2975;50.956;6.962;2023-04-15T15:25:20;10.63;;;7.70;;